Dauntless Aviation
Airports Europe Ukraine
UKDE
OZH

Zaporizhzhia International Airport

Zaporizhia, UKRAINE

Airport Info
Suggest Updated Information for this Airport

Location

Latitude / Longitude: 47°52'1"N / 35°18'56"E
  47°52.02'N / 35°18.942'E
  47.8670 / 35.3157

Runway Information

Runway 02 /20

Dimensions: 8202 x 138 ft.
Surface: ASP
 
Runway 02
Runway 20
Latitude: 47.856944 47.8775
Longitude: 35.31 35.322778
Elevation: 339 ft. 339 ft.
Runway true heading: 23.5 203.5
 

Instrument Procedures

  [Cyrillic] Aerodrome Chart
  [Cyrillic] Aerodrome Taxi Circuit
  [Cyrillic] Aerodrome Taxi Circuit
  [Cyrillic] Aerodrome Taxi Circuit
  Aircraft Parking/Docking Chart
  Aircraft Parking/Docking Chart - MOTOR SICH PLANT
  Aerodrome Ground Movement Chart
  Aerodrome Chart
  Area Chart - TMA ZAPORIZHZHIA

STARs (Standard Terminal Arrivals)

  STAR Rwy 02L/02R
  STAR Rwy 20L/20R
  [Cyrillic] STAR Rwy 02
  [Cyrillic] STAR Rwy 20

IAPs (Instrument Approach Procedures)

  Aerodrome Obstacle Chart - Type A (Operating Limitations) Rwy 02R/20L
  Aerodrome Obstacle Chart - Type A (Operating Limitations) Rwy 02L/20R
  Aerodrome Information (Textual)
  [Cyrillic] IAC ILS Rwy 02
  [Cyrillic] IAC ILS Rwy 20
  [Cyrillic] IAC NDB Rwy 02
  [Cyrillic] IAC NDB Rwy 20
  ILS Rwy 02R
  NDB Rwy 02R
  ILS Rwy 20L
  NDB Rwy 20L
  NDB Rwy 02L
  NDB Rwy 20R
  Visual Approach Chart
  ATC Surveillance Minimum Altitude Chart
  [Cyrillic] Operational Area

Departure Procedures

  SID Rwy 02R
  SID Rwy 20L
  SID Rwy 02L
  SID Rwy 20R
  [Cyrillic] SID Rwy 02
  [Cyrillic] SID Rwy 20
Satellite photo at:
Airport distance calculator
From:
Weather Reports

METAR

UKDE

UKDE 251300Z 23004MPS 9999 BKN027 06/02 Q1019 R20/210570 NOSIG
UKDD
31.2nm NW
UKDD 251300Z 29004MPS CAVOK 05/01 Q1018 R26/210370 NOSIG

TAF

UKDE
TAF COR UKDE 251111Z 2512/2521 24005MPS 5000 BR BKN020 TX07/2513Z TN03/2521Z TEMPO 2518/2521 2100 BR BKN007
UKDD
31.2nm NW
TAF UKDD 251104Z 2512/2612 28006MPS 6000 BKN010 TX05/2512Z TN02/2603Z TEMPO 2512/2612 2100 -SHRA BR BKN004 BKN015CB BECMG 2522/2524 32003MPS
Safelog

 

Dauntless Aviation

© 2007-2020 Dauntless Aviation, all rights reserved
Information provided via PilotNav comes from a variety of official and unofficial data sources. As errors are possible, do not use PilotNav for primary flight planning purposes. Verify any information that you receive via PilotNav with current and canonical charts and other official documents. The material in this database is subject to database copyrights held by Dauntless Aviation and may not be copied without the express permission of Dauntless Aviation - licenses for use of part of all of this data are available for purchase; enquire via the Dauntless Aviation helpdesk. A number of mechanisms and markers exist in the database to protect against and identify infringement / copyright. Automated queries against this website are strictly prohibited, and all activity is logged and analyzed.